sensor_id;sensor_type;location;lat;lon;timestamp;P1;durP1;ratioP1;P2;durP2;ratioP2
13366;SDS011;6752;52.612;13.630;2023-01-16T00:03:33;6.72;;;4.22;;
13366;SDS011;6752;52.612;13.630;2023-01-16T00:08:36;10.77;;;4.60;;
13366;SDS011;6752;52.612;13.630;2023-01-16T00:13:38;15.02;;;4.62;;
13366;SDS011;6752;52.612;13.630;2023-01-16T00:18:40;9.55;;;4.37;;
13366;SDS011;6752;52.612;13.630;2023-01-16T00:28:45;9.88;;;4.47;;
13366;SDS011;6752;52.612;13.630;2023-01-16T00:33:47;11.68;;;4.80;;
13366;SDS011;6752;52.612;13.630;2023-01-16T00:38:50;6.50;;;4.47;;
13366;SDS011;6752;52.612;13.630;2023-01-16T00:43:52;7.50;;;4.95;;
13366;SDS011;6752;52.612;13.630;2023-01-16T00:48:55;8.63;;;4.50;;
13366;SDS011;6752;52.612;13.630;2023-01-16T00:53:57;8.88;;;4.22;;
13366;SDS011;6752;52.612;13.630;2023-01-16T00:58:59;6.62;;;4.45;;
13366;SDS011;6752;52.612;13.630;2023-01-16T01:14:08;6.18;;;4.12;;
13366;SDS011;6752;52.612;13.630;2023-01-16T01:19:10;14.27;;;5.78;;
13366;SDS011;6752;52.612;13.630;2023-01-16T01:24:16;5.57;;;4.07;;
13366;SDS011;6752;52.612;13.630;2023-01-16T01:29:18;7.93;;;4.37;;
13366;SDS011;6752;52.612;13.630;2023-01-16T01:34:20;9.43;;;4.25;;
13366;SDS011;6752;52.612;13.630;2023-01-16T01:39:23;8.55;;;4.05;;
13366;SDS011;6752;52.612;13.630;2023-01-16T01:44:49;6.72;;;4.30;;
13366;SDS011;6752;52.612;13.630;2023-01-16T01:49:49;5.65;;;3.90;;
13366;SDS011;6752;52.612;13.630;2023-01-16T01:54:55;8.82;;;4.35;;
13366;SDS011;6752;52.612;13.630;2023-01-16T02:00:03;9.52;;;4.78;;
13366;SDS011;6752;52.612;13.630;2023-01-16T02:05:12;6.00;;;4.57;;
13366;SDS011;6752;52.612;13.630;2023-01-16T02:10:18;6.60;;;4.37;;
13366;SDS011;6752;52.612;13.630;2023-01-16T02:15:22;5.78;;;4.65;;
13366;SDS011;6752;52.612;13.630;2023-01-16T02:20:25;11.00;;;4.55;;
13366;SDS011;6752;52.612;13.630;2023-01-16T02:31:04;6.00;;;4.40;;
13366;SDS011;6752;52.612;13.630;2023-01-16T02:36:09;6.28;;;4.53;;
13366;SDS011;6752;52.612;13.630;2023-01-16T02:41:19;7.62;;;4.82;;
13366;SDS011;6752;52.612;13.630;2023-01-16T02:46:32;5.68;;;4.30;;
13366;SDS011;6752;52.612;13.630;2023-01-16T02:51:50;8.10;;;4.82;;
13366;SDS011;6752;52.612;13.630;2023-01-16T02:56:56;9.40;;;5.35;;
13366;SDS011;6752;52.612;13.630;2023-01-16T03:01:56;10.77;;;5.10;;
13366;SDS011;6752;52.612;13.630;2023-01-16T03:07:46;7.57;;;5.22;;
13366;SDS011;6752;52.612;13.630;2023-01-16T03:17:35;5.75;;;4.85;;
13366;SDS011;6752;52.612;13.630;2023-01-16T03:22:37;8.48;;;5.30;;
13366;SDS011;6752;52.612;13.630;2023-01-16T03:27:49;7.65;;;4.75;;
13366;SDS011;6752;52.612;13.630;2023-01-16T03:33:16;7.45;;;5.20;;
13366;SDS011;6752;52.612;13.630;2023-01-16T03:37:53;8.70;;;5.32;;
13366;SDS011;6752;52.612;13.630;2023-01-16T03:43:00;5.80;;;4.57;;
13366;SDS011;6752;52.612;13.630;2023-01-16T03:48:10;6.65;;;4.90;;
13366;SDS011;6752;52.612;13.630;2023-01-16T03:53:14;11.10;;;4.70;;
13366;SDS011;6752;52.612;13.630;2023-01-16T03:58:20;6.35;;;4.70;;
13366;SDS011;6752;52.612;13.630;2023-01-16T04:03:26;7.60;;;5.37;;
13366;SDS011;6752;52.612;13.630;2023-01-16T04:08:32;6.53;;;4.32;;
13366;SDS011;6752;52.612;13.630;2023-01-16T04:13:34;7.30;;;4.43;;
13366;SDS011;6752;52.612;13.630;2023-01-16T04:18:36;8.53;;;4.43;;
13366;SDS011;6752;52.612;13.630;2023-01-16T04:23:39;5.87;;;4.20;;
13366;SDS011;6752;52.612;13.630;2023-01-16T04:28:42;6.37;;;4.85;;
13366;SDS011;6752;52.612;13.630;2023-01-16T04:33:44;11.93;;;4.70;;
13366;SDS011;6752;52.612;13.630;2023-01-16T04:38:47;5.72;;;4.07;;
13366;SDS011;6752;52.612;13.630;2023-01-16T04:43:49;10.18;;;5.12;;
13366;SDS011;6752;52.612;13.630;2023-01-16T04:53:56;7.60;;;5.17;;
13366;SDS011;6752;52.612;13.630;2023-01-16T04:59:01;5.95;;;4.78;;
13366;SDS011;6752;52.612;13.630;2023-01-16T05:04:03;9.15;;;4.45;;
13366;SDS011;6752;52.612;13.630;2023-01-16T05:09:05;6.63;;;4.47;;
13366;SDS011;6752;52.612;13.630;2023-01-16T05:14:08;7.15;;;4.80;;
13366;SDS011;6752;52.612;13.630;2023-01-16T05:19:10;10.85;;;4.80;;
13366;SDS011;6752;52.612;13.630;2023-01-16T05:29:15;7.78;;;5.32;;
13366;SDS011;6752;52.612;13.630;2023-01-16T05:34:17;7.30;;;5.15;;
13366;SDS011;6752;52.612;13.630;2023-01-16T05:39:19;13.85;;;5.47;;
13366;SDS011;6752;52.612;13.630;2023-01-16T05:49:24;6.43;;;5.22;;
13366;SDS011;6752;52.612;13.630;2023-01-16T05:54:26;8.13;;;5.35;;
13366;SDS011;6752;52.612;13.630;2023-01-16T05:59:28;9.88;;;5.93;;
13366;SDS011;6752;52.612;13.630;2023-01-16T06:04:31;9.63;;;4.95;;
13366;SDS011;6752;52.612;13.630;2023-01-16T06:09:33;10.05;;;6.20;;
13366;SDS011;6752;52.612;13.630;2023-01-16T06:14:37;12.93;;;7.18;;
13366;SDS011;6752;52.612;13.630;2023-01-16T06:19:40;10.35;;;6.70;;
13366;SDS011;6752;52.612;13.630;2023-01-16T06:24:42;11.18;;;6.32;;
13366;SDS011;6752;52.612;13.630;2023-01-16T06:29:44;8.85;;;5.68;;
13366;SDS011;6752;52.612;13.630;2023-01-16T06:34:47;13.32;;;7.90;;
13366;SDS011;6752;52.612;13.630;2023-01-16T06:39:52;11.18;;;6.03;;
13366;SDS011;6752;52.612;13.630;2023-01-16T06:45:04;9.30;;;5.97;;
13366;SDS011;6752;52.612;13.630;2023-01-16T06:50:07;10.10;;;5.60;;
13366;SDS011;6752;52.612;13.630;2023-01-16T06:55:09;8.63;;;5.30;;
13366;SDS011;6752;52.612;13.630;2023-01-16T07:05:14;10.63;;;5.95;;
13366;SDS011;6752;52.612;13.630;2023-01-16T07:10:16;8.10;;;5.65;;
13366;SDS011;6752;52.612;13.630;2023-01-16T07:15:19;7.70;;;6.25;;
13366;SDS011;6752;52.612;13.630;2023-01-16T07:20:40;11.65;;;6.32;;
13366;SDS011;6752;52.612;13.630;2023-01-16T07:26:03;10.55;;;5.90;;
13366;SDS011;6752;52.612;13.630;2023-01-16T07:31:05;12.77;;;6.55;;
13366;SDS011;6752;52.612;13.630;2023-01-16T07:36:08;9.75;;;6.10;;
13366;SDS011;6752;52.612;13.630;2023-01-16T07:41:10;9.45;;;5.97;;
13366;SDS011;6752;52.612;13.630;2023-01-16T07:46:13;9.25;;;5.80;;
13366;SDS011;6752;52.612;13.630;2023-01-16T07:51:15;11.77;;;6.37;;
13366;SDS011;6752;52.612;13.630;2023-01-16T07:56:18;11.83;;;6.23;;
13366;SDS011;6752;52.612;13.630;2023-01-16T08:01:20;9.52;;;6.20;;
13366;SDS011;6752;52.612;13.630;2023-01-16T08:06:23;9.23;;;5.65;;
13366;SDS011;6752;52.612;13.630;2023-01-16T08:11:25;11.70;;;6.15;;
13366;SDS011;6752;52.612;13.630;2023-01-16T08:16:45;11.12;;;5.60;;
13366;SDS011;6752;52.612;13.630;2023-01-16T08:21:48;14.43;;;7.87;;
13366;SDS011;6752;52.612;13.630;2023-01-16T08:26:51;10.30;;;7.10;;
13366;SDS011;6752;52.612;13.630;2023-01-16T08:31:53;10.20;;;6.15;;
13366;SDS011;6752;52.612;13.630;2023-01-16T08:36:56;9.75;;;5.93;;
13366;SDS011;6752;52.612;13.630;2023-01-16T08:42:04;11.65;;;6.15;;
13366;SDS011;6752;52.612;13.630;2023-01-16T08:47:25;6.50;;;5.20;;
13366;SDS011;6752;52.612;13.630;2023-01-16T08:52:46;11.27;;;5.85;;
13366;SDS011;6752;52.612;13.630;2023-01-16T08:57:48;12.45;;;5.95;;
13366;SDS011;6752;52.612;13.630;2023-01-16T09:02:51;8.63;;;5.10;;
13366;SDS011;6752;52.612;13.630;2023-01-16T09:07:54;10.88;;;4.87;;
13366;SDS011;6752;52.612;13.630;2023-01-16T09:13:12;9.40;;;5.25;;
13366;SDS011;6752;52.612;13.630;2023-01-16T09:18:32;7.93;;;5.30;;
13366;SDS011;6752;52.612;13.630;2023-01-16T09:23:35;7.05;;;4.50;;
13366;SDS011;6752;52.612;13.630;2023-01-16T09:28:37;8.82;;;5.60;;
13366;SDS011;6752;52.612;13.630;2023-01-16T09:33:40;9.80;;;4.95;;
13366;SDS011;6752;52.612;13.630;2023-01-16T09:43:46;9.02;;;5.18;;
13366;SDS011;6752;52.612;13.630;2023-01-16T09:59:20;10.18;;;4.82;;
13366;SDS011;6752;52.612;13.630;2023-01-16T10:04:22;9.70;;;4.75;;
13366;SDS011;6752;52.612;13.630;2023-01-16T10:09:34;8.38;;;4.70;;
13366;SDS011;6752;52.612;13.630;2023-01-16T10:14:44;10.32;;;4.65;;
13366;SDS011;6752;52.612;13.630;2023-01-16T10:20:00;6.12;;;4.07;;
13366;SDS011;6752;52.612;13.630;2023-01-16T10:30:40;11.27;;;4.32;;
13366;SDS011;6752;52.612;13.630;2023-01-16T10:35:42;7.80;;;3.93;;
13366;SDS011;6752;52.612;13.630;2023-01-16T10:40:50;10.50;;;5.03;;
13366;SDS011;6752;52.612;13.630;2023-01-16T10:45:52;9.97;;;3.67;;
13366;SDS011;6752;52.612;13.630;2023-01-16T10:51:03;8.38;;;3.22;;
13366;SDS011;6752;52.612;13.630;2023-01-16T11:01:11;6.75;;;3.03;;
13366;SDS011;6752;52.612;13.630;2023-01-16T11:06:27;7.50;;;3.10;;
13366;SDS011;6752;52.612;13.630;2023-01-16T11:11:24;7.53;;;3.33;;
13366;SDS011;6752;52.612;13.630;2023-01-16T11:16:45;6.32;;;2.92;;
13366;SDS011;6752;52.612;13.630;2023-01-16T11:22:22;8.20;;;3.40;;
13366;SDS011;6752;52.612;13.630;2023-01-16T11:27:34;7.70;;;3.35;;
13366;SDS011;6752;52.612;13.630;2023-01-16T11:32:35;8.50;;;3.15;;
13366;SDS011;6752;52.612;13.630;2023-01-16T11:37:42;6.10;;;2.87;;
13366;SDS011;6752;52.612;13.630;2023-01-16T11:48:21;11.30;;;3.22;;
13366;SDS011;6752;52.612;13.630;2023-01-16T11:53:30;6.32;;;3.55;;
13366;SDS011;6752;52.612;13.630;2023-01-16T12:03:54;8.60;;;3.83;;
13366;SDS011;6752;52.612;13.630;2023-01-16T12:09:18;6.10;;;3.42;;
13366;SDS011;6752;52.612;13.630;2023-01-16T12:14:23;7.97;;;4.00;;
13366;SDS011;6752;52.612;13.630;2023-01-16T12:25:05;7.20;;;4.45;;
13366;SDS011;6752;52.612;13.630;2023-01-16T12:35:34;7.72;;;3.75;;
13366;SDS011;6752;52.612;13.630;2023-01-16T12:40:40;6.55;;;3.75;;
13366;SDS011;6752;52.612;13.630;2023-01-16T12:46:01;9.27;;;4.37;;
13366;SDS011;6752;52.612;13.630;2023-01-16T13:01:43;13.38;;;5.85;;
13366;SDS011;6752;52.612;13.630;2023-01-16T13:06:46;7.05;;;4.68;;
13366;SDS011;6752;52.612;13.630;2023-01-16T13:12:12;5.37;;;3.42;;
13366;SDS011;6752;52.612;13.630;2023-01-16T13:17:46;10.10;;;4.37;;
13366;SDS011;6752;52.612;13.630;2023-01-16T13:22:55;12.07;;;5.73;;
13366;SDS011;6752;52.612;13.630;2023-01-16T13:33:19;5.87;;;4.10;;
13366;SDS011;6752;52.612;13.630;2023-01-16T13:38:31;10.95;;;4.12;;
13366;SDS011;6752;52.612;13.630;2023-01-16T13:43:31;6.10;;;4.50;;
13366;SDS011;6752;52.612;13.630;2023-01-16T13:48:41;7.47;;;3.60;;
13366;SDS011;6752;52.612;13.630;2023-01-16T13:53:50;9.52;;;3.60;;
13366;SDS011;6752;52.612;13.630;2023-01-16T13:59:05;8.70;;;3.67;;
13366;SDS011;6752;52.612;13.630;2023-01-16T14:09:20;6.85;;;3.70;;
13366;SDS011;6752;52.612;13.630;2023-01-16T14:14:22;9.00;;;3.90;;
13366;SDS011;6752;52.612;13.630;2023-01-16T14:19:25;10.05;;;4.22;;
13366;SDS011;6752;52.612;13.630;2023-01-16T14:24:28;5.78;;;4.00;;
13366;SDS011;6752;52.612;13.630;2023-01-16T14:29:34;9.13;;;4.35;;
13366;SDS011;6752;52.612;13.630;2023-01-16T14:34:48;9.38;;;4.37;;
13366;SDS011;6752;52.612;13.630;2023-01-16T14:45:09;5.97;;;4.30;;
13366;SDS011;6752;52.612;13.630;2023-01-16T14:50:38;7.20;;;4.22;;
13366;SDS011;6752;52.612;13.630;2023-01-16T14:55:50;10.30;;;4.85;;
13366;SDS011;6752;52.612;13.630;2023-01-16T15:00:51;9.25;;;4.40;;
13366;SDS011;6752;52.612;13.630;2023-01-16T15:05:55;7.07;;;4.18;;
13366;SDS011;6752;52.612;13.630;2023-01-16T15:10:57;8.15;;;5.03;;
13366;SDS011;6752;52.612;13.630;2023-01-16T15:16:00;9.63;;;4.75;;
13366;SDS011;6752;52.612;13.630;2023-01-16T15:21:02;9.52;;;4.78;;
13366;SDS011;6752;52.612;13.630;2023-01-16T15:31:43;6.93;;;5.03;;
13366;SDS011;6752;52.612;13.630;2023-01-16T15:36:45;13.45;;;5.25;;
13366;SDS011;6752;52.612;13.630;2023-01-16T15:41:47;11.32;;;5.05;;
13366;SDS011;6752;52.612;13.630;2023-01-16T15:47:21;9.93;;;5.18;;
13366;SDS011;6752;52.612;13.630;2023-01-16T15:52:32;10.00;;;6.65;;
13366;SDS011;6752;52.612;13.630;2023-01-16T15:57:34;16.30;;;5.68;;
13366;SDS011;6752;52.612;13.630;2023-01-16T16:07:40;10.15;;;5.20;;
13366;SDS011;6752;52.612;13.630;2023-01-16T16:12:42;10.13;;;6.22;;
13366;SDS011;6752;52.612;13.630;2023-01-16T16:17:45;9.73;;;4.95;;
13366;SDS011;6752;52.612;13.630;2023-01-16T16:28:26;9.57;;;5.50;;
13366;SDS011;6752;52.612;13.630;2023-01-16T16:33:18;9.93;;;4.97;;
13366;SDS011;6752;52.612;13.630;2023-01-16T16:38:29;8.10;;;5.25;;
13366;SDS011;6752;52.612;13.630;2023-01-16T16:43:43;9.93;;;5.35;;
13366;SDS011;6752;52.612;13.630;2023-01-16T16:49:40;8.02;;;5.72;;
13366;SDS011;6752;52.612;13.630;2023-01-16T16:53:57;8.55;;;5.50;;
13366;SDS011;6752;52.612;13.630;2023-01-16T16:59:01;8.45;;;5.28;;
13366;SDS011;6752;52.612;13.630;2023-01-16T17:04:04;10.93;;;6.62;;
13366;SDS011;6752;52.612;13.630;2023-01-16T17:09:08;11.60;;;6.57;;
13366;SDS011;6752;52.612;13.630;2023-01-16T17:14:08;15.52;;;6.75;;
13366;SDS011;6752;52.612;13.630;2023-01-16T17:19:29;10.40;;;6.12;;
13366;SDS011;6752;52.612;13.630;2023-01-16T17:24:39;10.45;;;5.82;;
13366;SDS011;6752;52.612;13.630;2023-01-16T17:29:42;11.07;;;5.47;;
13366;SDS011;6752;52.612;13.630;2023-01-16T17:34:49;10.93;;;6.80;;
13366;SDS011;6752;52.612;13.630;2023-01-16T17:39:51;10.90;;;6.75;;
13366;SDS011;6752;52.612;13.630;2023-01-16T17:44:55;7.78;;;5.22;;
13366;SDS011;6752;52.612;13.630;2023-01-16T17:55:22;10.30;;;7.18;;
13366;SDS011;6752;52.612;13.630;2023-01-16T18:00:46;12.27;;;6.50;;
13366;SDS011;6752;52.612;13.630;2023-01-16T18:05:45;8.13;;;6.12;;
13366;SDS011;6752;52.612;13.630;2023-01-16T18:10:49;11.48;;;6.72;;
13366;SDS011;6752;52.612;13.630;2023-01-16T18:15:51;12.23;;;6.78;;
13366;SDS011;6752;52.612;13.630;2023-01-16T18:21:12;15.27;;;6.22;;
13366;SDS011;6752;52.612;13.630;2023-01-16T18:26:29;12.07;;;7.10;;
13366;SDS011;6752;52.612;13.630;2023-01-16T18:31:31;10.38;;;7.18;;
13366;SDS011;6752;52.612;13.630;2023-01-16T18:36:37;11.35;;;7.20;;
13366;SDS011;6752;52.612;13.630;2023-01-16T18:41:39;10.60;;;6.18;;
13366;SDS011;6752;52.612;13.630;2023-01-16T18:46:59;12.70;;;6.32;;
13366;SDS011;6752;52.612;13.630;2023-01-16T18:52:20;10.38;;;6.90;;
13366;SDS011;6752;52.612;13.630;2023-01-16T18:57:41;8.75;;;6.00;;
13366;SDS011;6752;52.612;13.630;2023-01-16T19:03:03;10.52;;;7.20;;
13366;SDS011;6752;52.612;13.630;2023-01-16T19:08:06;11.93;;;7.30;;
13366;SDS011;6752;52.612;13.630;2023-01-16T19:13:08;12.13;;;6.32;;
13366;SDS011;6752;52.612;13.630;2023-01-16T19:18:10;9.73;;;6.15;;
13366;SDS011;6752;52.612;13.630;2023-01-16T19:28:15;12.20;;;7.10;;
13366;SDS011;6752;52.612;13.630;2023-01-16T19:33:17;12.45;;;7.65;;
13366;SDS011;6752;52.612;13.630;2023-01-16T19:38:20;11.00;;;6.25;;
13366;SDS011;6752;52.612;13.630;2023-01-16T19:43:22;14.00;;;7.50;;
13366;SDS011;6752;52.612;13.630;2023-01-16T19:48:43;10.65;;;5.72;;
13366;SDS011;6752;52.612;13.630;2023-01-16T19:53:45;10.68;;;6.47;;
13366;SDS011;6752;52.612;13.630;2023-01-16T19:58:47;10.30;;;6.72;;
13366;SDS011;6752;52.612;13.630;2023-01-16T20:03:50;9.18;;;6.82;;
13366;SDS011;6752;52.612;13.630;2023-01-16T20:08:52;11.57;;;7.77;;
13366;SDS011;6752;52.612;13.630;2023-01-16T20:13:54;11.65;;;5.57;;
13366;SDS011;6752;52.612;13.630;2023-01-16T20:18:58;10.75;;;6.30;;
13366;SDS011;6752;52.612;13.630;2023-01-16T20:24:00;9.35;;;5.47;;
13366;SDS011;6752;52.612;13.630;2023-01-16T20:29:05;8.88;;;5.70;;
13366;SDS011;6752;52.612;13.630;2023-01-16T20:34:07;8.23;;;5.85;;
13366;SDS011;6752;52.612;13.630;2023-01-16T20:39:11;8.88;;;5.85;;
13366;SDS011;6752;52.612;13.630;2023-01-16T20:44:15;9.75;;;5.93;;
13366;SDS011;6752;52.612;13.630;2023-01-16T20:49:34;10.00;;;7.05;;
13366;SDS011;6752;52.612;13.630;2023-01-16T20:54:36;8.38;;;5.70;;
13366;SDS011;6752;52.612;13.630;2023-01-16T20:59:39;10.23;;;6.30;;
13366;SDS011;6752;52.612;13.630;2023-01-16T21:04:42;8.27;;;6.00;;
13366;SDS011;6752;52.612;13.630;2023-01-16T21:09:58;11.82;;;5.82;;
13366;SDS011;6752;52.612;13.630;2023-01-16T21:15:00;11.23;;;6.93;;
13366;SDS011;6752;52.612;13.630;2023-01-16T21:20:02;8.25;;;5.70;;
13366;SDS011;6752;52.612;13.630;2023-01-16T21:25:30;11.35;;;6.85;;
13366;SDS011;6752;52.612;13.630;2023-01-16T21:30:32;8.48;;;6.50;;
13366;SDS011;6752;52.612;13.630;2023-01-16T21:35:41;10.07;;;6.68;;
13366;SDS011;6752;52.612;13.630;2023-01-16T21:40:44;9.60;;;6.70;;
13366;SDS011;6752;52.612;13.630;2023-01-16T21:45:48;10.98;;;6.78;;
13366;SDS011;6752;52.612;13.630;2023-01-16T21:51:09;9.70;;;6.72;;
13366;SDS011;6752;52.612;13.630;2023-01-16T21:56:11;11.17;;;6.87;;
13366;SDS011;6752;52.612;13.630;2023-01-16T22:06:16;8.50;;;6.45;;
13366;SDS011;6752;52.612;13.630;2023-01-16T22:11:18;10.32;;;6.78;;
13366;SDS011;6752;52.612;13.630;2023-01-16T22:16:38;9.90;;;6.55;;
13366;SDS011;6752;52.612;13.630;2023-01-16T22:22:05;8.88;;;6.78;;
13366;SDS011;6752;52.612;13.630;2023-01-16T22:27:11;11.02;;;6.30;;
13366;SDS011;6752;52.612;13.630;2023-01-16T22:32:13;9.60;;;7.40;;
13366;SDS011;6752;52.612;13.630;2023-01-16T22:37:16;10.45;;;6.95;;
13366;SDS011;6752;52.612;13.630;2023-01-16T22:42:18;10.90;;;7.25;;
13366;SDS011;6752;52.612;13.630;2023-01-16T22:47:20;10.68;;;6.85;;
13366;SDS011;6752;52.612;13.630;2023-01-16T22:52:23;9.00;;;6.73;;
13366;SDS011;6752;52.612;13.630;2023-01-16T22:57:25;8.38;;;6.12;;
13366;SDS011;6752;52.612;13.630;2023-01-16T23:02:27;9.73;;;5.97;;
13366;SDS011;6752;52.612;13.630;2023-01-16T23:07:36;8.40;;;5.50;;
13366;SDS011;6752;52.612;13.630;2023-01-16T23:12:40;9.13;;;5.72;;
13366;SDS011;6752;52.612;13.630;2023-01-16T23:17:42;9.13;;;6.45;;
13366;SDS011;6752;52.612;13.630;2023-01-16T23:22:44;8.35;;;6.12;;
13366;SDS011;6752;52.612;13.630;2023-01-16T23:27:47;7.50;;;6.28;;
13366;SDS011;6752;52.612;13.630;2023-01-16T23:32:49;10.38;;;6.90;;
13366;SDS011;6752;52.612;13.630;2023-01-16T23:37:51;7.68;;;6.18;;
13366;SDS011;6752;52.612;13.630;2023-01-16T23:42:54;7.40;;;5.90;;
13366;SDS011;6752;52.612;13.630;2023-01-16T23:48:15;9.40;;;6.12;;
13366;SDS011;6752;52.612;13.630;2023-01-16T23:53:17;9.50;;;7.28;;
13366;SDS011;6752;52.612;13.630;2023-01-16T23:58:20;8.73;;;6.70;;
